sensor_id;sensor_type;location;lat;lon;timestamp;P1;durP1;ratioP1;P2;durP2;ratioP2
78666;SDS011;67983;59.830;30.198;2023-04-25T00:02:05;13.40;;;8.32;;
78666;SDS011;67983;59.830;30.198;2023-04-25T00:04:36;13.77;;;9.80;;
78666;SDS011;67983;59.830;30.198;2023-04-25T00:07:04;10.88;;;7.95;;
78666;SDS011;67983;59.830;30.198;2023-04-25T00:09:33;14.80;;;8.57;;
78666;SDS011;67983;59.830;30.198;2023-04-25T00:12:02;10.20;;;7.18;;
78666;SDS011;67983;59.830;30.198;2023-04-25T00:14:31;12.82;;;8.48;;
78666;SDS011;67983;59.830;30.198;2023-04-25T00:16:59;17.58;;;8.07;;
78666;SDS011;67983;59.830;30.198;2023-04-25T00:19:29;10.85;;;6.38;;
78666;SDS011;67983;59.830;30.198;2023-04-25T00:21:59;11.05;;;8.02;;
78666;SDS011;67983;59.830;30.198;2023-04-25T00:24:26;17.05;;;9.35;;
78666;SDS011;67983;59.830;30.198;2023-04-25T00:26:55;12.40;;;8.40;;
78666;SDS011;67983;59.830;30.198;2023-04-25T00:29:22;11.07;;;7.45;;
78666;SDS011;67983;59.830;30.198;2023-04-25T00:31:49;11.82;;;7.55;;
78666;SDS011;67983;59.830;30.198;2023-04-25T00:34:18;11.93;;;7.55;;
78666;SDS011;67983;59.830;30.198;2023-04-25T00:36:45;13.23;;;7.93;;
78666;SDS011;67983;59.830;30.198;2023-04-25T00:39:14;10.30;;;6.55;;
78666;SDS011;67983;59.830;30.198;2023-04-25T00:41:41;15.10;;;8.23;;
78666;SDS011;67983;59.830;30.198;2023-04-25T00:44:10;14.50;;;7.90;;
78666;SDS011;67983;59.830;30.198;2023-04-25T00:47:03;12.50;;;7.07;;
78666;SDS011;67983;59.830;30.198;2023-04-25T00:49:32;14.20;;;8.05;;
78666;SDS011;67983;59.830;30.198;2023-04-25T00:52:03;12.75;;;8.75;;
78666;SDS011;67983;59.830;30.198;2023-04-25T00:54:31;12.48;;;7.93;;
78666;SDS011;67983;59.830;30.198;2023-04-25T00:56:58;12.50;;;8.23;;
78666;SDS011;67983;59.830;30.198;2023-04-25T00:59:27;11.05;;;7.38;;
78666;SDS011;67983;59.830;30.198;2023-04-25T01:01:55;13.75;;;8.38;;
78666;SDS011;67983;59.830;30.198;2023-04-25T01:04:24;11.40;;;7.68;;
78666;SDS011;67983;59.830;30.198;2023-04-25T01:06:55;18.40;;;8.70;;
78666;SDS011;67983;59.830;30.198;2023-04-25T01:09:22;12.15;;;7.75;;
78666;SDS011;67983;59.830;30.198;2023-04-25T01:11:51;9.70;;;6.88;;
78666;SDS011;67983;59.830;30.198;2023-04-25T01:14:19;11.15;;;8.18;;
78666;SDS011;67983;59.830;30.198;2023-04-25T01:16:45;15.50;;;7.35;;
78666;SDS011;67983;59.830;30.198;2023-04-25T01:19:13;11.20;;;7.63;;
78666;SDS011;67983;59.830;30.198;2023-04-25T01:21:47;17.02;;;7.38;;
78666;SDS011;67983;59.830;30.198;2023-04-25T01:24:16;7.85;;;5.68;;
78666;SDS011;67983;59.830;30.198;2023-04-25T01:26:43;9.55;;;6.78;;
78666;SDS011;67983;59.830;30.198;2023-04-25T01:29:22;11.98;;;7.57;;
78666;SDS011;67983;59.830;30.198;2023-04-25T01:31:50;12.02;;;8.32;;
78666;SDS011;67983;59.830;30.198;2023-04-25T01:34:18;10.90;;;7.32;;
78666;SDS011;67983;59.830;30.198;2023-04-25T01:36:47;10.00;;;7.03;;
78666;SDS011;67983;59.830;30.198;2023-04-25T01:39:16;8.15;;;5.80;;
78666;SDS011;67983;59.830;30.198;2023-04-25T01:41:44;10.18;;;6.80;;
78666;SDS011;67983;59.830;30.198;2023-04-25T01:44:11;10.50;;;6.05;;
78666;SDS011;67983;59.830;30.198;2023-04-25T01:46:38;12.02;;;6.72;;
78666;SDS011;67983;59.830;30.198;2023-04-25T01:49:10;9.25;;;5.40;;
78666;SDS011;67983;59.830;30.198;2023-04-25T01:51:39;10.25;;;6.63;;
78666;SDS011;67983;59.830;30.198;2023-04-25T01:54:08;9.07;;;6.30;;
78666;SDS011;67983;59.830;30.198;2023-04-25T01:56:38;7.95;;;5.32;;
78666;SDS011;67983;59.830;30.198;2023-04-25T01:59:08;8.25;;;5.43;;
78666;SDS011;67983;59.830;30.198;2023-04-25T02:01:58;11.00;;;5.93;;
78666;SDS011;67983;59.830;30.198;2023-04-25T02:04:30;10.75;;;6.50;;
78666;SDS011;67983;59.830;30.198;2023-04-25T02:06:57;9.98;;;5.43;;
78666;SDS011;67983;59.830;30.198;2023-04-25T02:09:33;7.25;;;5.13;;
78666;SDS011;67983;59.830;30.198;2023-04-25T02:12:07;11.02;;;6.20;;
78666;SDS011;67983;59.830;30.198;2023-04-25T02:15:23;9.48;;;5.38;;
78666;SDS011;67983;59.830;30.198;2023-04-25T02:17:55;8.82;;;5.05;;
78666;SDS011;67983;59.830;30.198;2023-04-25T02:20:23;8.05;;;4.65;;
78666;SDS011;67983;59.830;30.198;2023-04-25T02:22:55;9.98;;;5.32;;
78666;SDS011;67983;59.830;30.198;2023-04-25T02:25:25;8.88;;;5.10;;
78666;SDS011;67983;59.830;30.198;2023-04-25T02:30:22;11.10;;;4.68;;
78666;SDS011;67983;59.830;30.198;2023-04-25T02:32:50;7.93;;;4.30;;
78666;SDS011;67983;59.830;30.198;2023-04-25T02:35:18;7.68;;;4.00;;
78666;SDS011;67983;59.830;30.198;2023-04-25T02:37:45;6.97;;;3.70;;
78666;SDS011;67983;59.830;30.198;2023-04-25T02:40:12;7.20;;;4.35;;
78666;SDS011;67983;59.830;30.198;2023-04-25T02:42:42;4.63;;;3.40;;
78666;SDS011;67983;59.830;30.198;2023-04-25T02:45:13;5.70;;;3.47;;
78666;SDS011;67983;59.830;30.198;2023-04-25T02:47:43;7.40;;;4.07;;
78666;SDS011;67983;59.830;30.198;2023-04-25T02:50:10;4.13;;;3.25;;
78666;SDS011;67983;59.830;30.198;2023-04-25T02:52:41;9.32;;;4.00;;
78666;SDS011;67983;59.830;30.198;2023-04-25T02:55:15;7.68;;;3.90;;
78666;SDS011;67983;59.830;30.198;2023-04-25T02:57:44;4.07;;;2.97;;
78666;SDS011;67983;59.830;30.198;2023-04-25T03:00:19;4.63;;;3.05;;
78666;SDS011;67983;59.830;30.198;2023-04-25T03:02:49;4.18;;;3.20;;
78666;SDS011;67983;59.830;30.198;2023-04-25T03:05:16;5.82;;;3.13;;
78666;SDS011;67983;59.830;30.198;2023-04-25T03:07:44;5.93;;;3.55;;
78666;SDS011;67983;59.830;30.198;2023-04-25T03:10:12;6.93;;;3.75;;
78666;SDS011;67983;59.830;30.198;2023-04-25T03:12:40;7.88;;;3.60;;
78666;SDS011;67983;59.830;30.198;2023-04-25T03:15:09;4.97;;;3.28;;
78666;SDS011;67983;59.830;30.198;2023-04-25T03:17:36;9.18;;;4.32;;
78666;SDS011;67983;59.830;30.198;2023-04-25T03:20:03;5.40;;;3.33;;
78666;SDS011;67983;59.830;30.198;2023-04-25T03:22:33;7.82;;;3.95;;
78666;SDS011;67983;59.830;30.198;2023-04-25T03:25:01;5.18;;;3.65;;
78666;SDS011;67983;59.830;30.198;2023-04-25T03:27:29;5.00;;;3.38;;
78666;SDS011;67983;59.830;30.198;2023-04-25T03:29:57;7.18;;;3.88;;
78666;SDS011;67983;59.830;30.198;2023-04-25T03:32:26;5.32;;;3.33;;
78666;SDS011;67983;59.830;30.198;2023-04-25T03:34:53;5.57;;;3.10;;
78666;SDS011;67983;59.830;30.198;2023-04-25T03:37:22;5.60;;;3.42;;
78666;SDS011;67983;59.830;30.198;2023-04-25T03:39:56;7.72;;;4.30;;
78666;SDS011;67983;59.830;30.198;2023-04-25T03:42:28;6.78;;;3.78;;
78666;SDS011;67983;59.830;30.198;2023-04-25T03:44:56;5.15;;;2.90;;
78666;SDS011;67983;59.830;30.198;2023-04-25T03:47:23;6.45;;;3.33;;
78666;SDS011;67983;59.830;30.198;2023-04-25T03:49:53;5.05;;;3.40;;
78666;SDS011;67983;59.830;30.198;2023-04-25T03:52:22;5.10;;;3.80;;
78666;SDS011;67983;59.830;30.198;2023-04-25T03:54:49;4.10;;;3.10;;
78666;SDS011;67983;59.830;30.198;2023-04-25T03:57:18;6.35;;;3.78;;
78666;SDS011;67983;59.830;30.198;2023-04-25T03:59:46;6.95;;;4.20;;
78666;SDS011;67983;59.830;30.198;2023-04-25T04:02:14;4.53;;;2.83;;
78666;SDS011;67983;59.830;30.198;2023-04-25T04:04:41;5.80;;;3.40;;
78666;SDS011;67983;59.830;30.198;2023-04-25T04:07:12;5.60;;;2.78;;
78666;SDS011;67983;59.830;30.198;2023-04-25T04:09:41;4.47;;;3.22;;
78666;SDS011;67983;59.830;30.198;2023-04-25T04:12:13;4.40;;;3.03;;
78666;SDS011;67983;59.830;30.198;2023-04-25T04:14:45;4.25;;;3.20;;
78666;SDS011;67983;59.830;30.198;2023-04-25T04:17:12;8.90;;;3.53;;
78666;SDS011;67983;59.830;30.198;2023-04-25T04:19:40;7.13;;;3.17;;
78666;SDS011;67983;59.830;30.198;2023-04-25T04:22:15;7.30;;;4.88;;
78666;SDS011;67983;59.830;30.198;2023-04-25T04:24:47;7.53;;;4.07;;
78666;SDS011;67983;59.830;30.198;2023-04-25T04:27:21;7.15;;;3.50;;
78666;SDS011;67983;59.830;30.198;2023-04-25T04:30:07;6.78;;;3.45;;
78666;SDS011;67983;59.830;30.198;2023-04-25T04:32:51;5.93;;;3.65;;
78666;SDS011;67983;59.830;30.198;2023-04-25T04:35:18;6.75;;;3.22;;
78666;SDS011;67983;59.830;30.198;2023-04-25T04:37:48;4.10;;;2.88;;
78666;SDS011;67983;59.830;30.198;2023-04-25T04:40:19;6.75;;;3.90;;
78666;SDS011;67983;59.830;30.198;2023-04-25T04:43:09;10.85;;;5.32;;
78666;SDS011;67983;59.830;30.198;2023-04-25T04:46:04;5.32;;;3.42;;
78666;SDS011;67983;59.830;30.198;2023-04-25T04:48:40;7.30;;;3.75;;
78666;SDS011;67983;59.830;30.198;2023-04-25T04:51:13;7.47;;;3.72;;
78666;SDS011;67983;59.830;30.198;2023-04-25T04:53:54;6.10;;;3.58;;
78666;SDS011;67983;59.830;30.198;2023-04-25T04:56:45;4.60;;;3.30;;
78666;SDS011;67983;59.830;30.198;2023-04-25T04:59:27;5.80;;;2.92;;
78666;SDS011;67983;59.830;30.198;2023-04-25T05:02:06;4.35;;;2.90;;
78666;SDS011;67983;59.830;30.198;2023-04-25T05:04:48;7.40;;;4.40;;
78666;SDS011;67983;59.830;30.198;2023-04-25T05:07:36;5.20;;;3.15;;
78666;SDS011;67983;59.830;30.198;2023-04-25T05:10:30;7.45;;;2.90;;
78666;SDS011;67983;59.830;30.198;2023-04-25T05:13:22;7.93;;;3.78;;
78666;SDS011;67983;59.830;30.198;2023-04-25T05:16:13;4.22;;;3.00;;
78666;SDS011;67983;59.830;30.198;2023-04-25T05:18:57;7.18;;;3.97;;
78666;SDS011;67983;59.830;30.198;2023-04-25T05:21:45;4.22;;;2.65;;
78666;SDS011;67983;59.830;30.198;2023-04-25T05:24:26;6.05;;;2.88;;
78666;SDS011;67983;59.830;30.198;2023-04-25T05:27:11;8.45;;;3.00;;
78666;SDS011;67983;59.830;30.198;2023-04-25T05:29:59;6.35;;;3.90;;
78666;SDS011;67983;59.830;30.198;2023-04-25T05:32:31;4.40;;;2.47;;
78666;SDS011;67983;59.830;30.198;2023-04-25T05:34:59;7.13;;;2.40;;
78666;SDS011;67983;59.830;30.198;2023-04-25T05:37:31;7.72;;;2.38;;
78666;SDS011;67983;59.830;30.198;2023-04-25T05:40:09;4.30;;;2.60;;
78666;SDS011;67983;59.830;30.198;2023-04-25T05:42:51;7.63;;;3.10;;
78666;SDS011;67983;59.830;30.198;2023-04-25T05:45:45;5.10;;;3.40;;
78666;SDS011;67983;59.830;30.198;2023-04-25T05:48:31;6.80;;;3.45;;
78666;SDS011;67983;59.830;30.198;2023-04-25T05:51:21;10.93;;;3.45;;
78666;SDS011;67983;59.830;30.198;2023-04-25T05:53:59;7.95;;;2.95;;
78666;SDS011;67983;59.830;30.198;2023-04-25T05:56:28;8.85;;;2.97;;
78666;SDS011;67983;59.830;30.198;2023-04-25T05:58:57;5.05;;;2.67;;
78666;SDS011;67983;59.830;30.198;2023-04-25T06:01:24;7.18;;;3.10;;
78666;SDS011;67983;59.830;30.198;2023-04-25T06:03:53;5.70;;;3.30;;
78666;SDS011;67983;59.830;30.198;2023-04-25T06:06:20;6.18;;;3.30;;
78666;SDS011;67983;59.830;30.198;2023-04-25T06:08:49;6.55;;;3.47;;
78666;SDS011;67983;59.830;30.198;2023-04-25T06:11:16;6.75;;;3.38;;
78666;SDS011;67983;59.830;30.198;2023-04-25T06:13:44;5.47;;;3.28;;
78666;SDS011;67983;59.830;30.198;2023-04-25T06:16:13;4.82;;;3.10;;
78666;SDS011;67983;59.830;30.198;2023-04-25T06:18:43;4.88;;;3.03;;
78666;SDS011;67983;59.830;30.198;2023-04-25T06:21:10;3.83;;;2.70;;
78666;SDS011;67983;59.830;30.198;2023-04-25T06:23:37;4.72;;;2.78;;
78666;SDS011;67983;59.830;30.198;2023-04-25T06:26:10;4.88;;;3.38;;
78666;SDS011;67983;59.830;30.198;2023-04-25T06:28:39;4.68;;;3.58;;
78666;SDS011;67983;59.830;30.198;2023-04-25T06:31:12;4.72;;;3.20;;
78666;SDS011;67983;59.830;30.198;2023-04-25T06:33:41;5.07;;;3.33;;
78666;SDS011;67983;59.830;30.198;2023-04-25T06:36:08;4.75;;;3.03;;
78666;SDS011;67983;59.830;30.198;2023-04-25T06:38:37;7.10;;;3.40;;
78666;SDS011;67983;59.830;30.198;2023-04-25T06:41:05;7.28;;;3.30;;
78666;SDS011;67983;59.830;30.198;2023-04-25T06:43:35;10.68;;;2.83;;
78666;SDS011;67983;59.830;30.198;2023-04-25T06:46:36;8.00;;;2.75;;
78666;SDS011;67983;59.830;30.198;2023-04-25T06:49:05;4.32;;;2.95;;
78666;SDS011;67983;59.830;30.198;2023-04-25T06:51:35;5.75;;;2.75;;
78666;SDS011;67983;59.830;30.198;2023-04-25T06:54:07;6.93;;;3.05;;
78666;SDS011;67983;59.830;30.198;2023-04-25T06:56:40;6.72;;;2.50;;
78666;SDS011;67983;59.830;30.198;2023-04-25T06:59:13;4.80;;;2.60;;
78666;SDS011;67983;59.830;30.198;2023-04-25T07:01:43;4.93;;;3.30;;
78666;SDS011;67983;59.830;30.198;2023-04-25T07:04:24;5.50;;;2.75;;
78666;SDS011;67983;59.830;30.198;2023-04-25T07:06:54;7.35;;;3.00;;
78666;SDS011;67983;59.830;30.198;2023-04-25T07:09:28;4.85;;;3.08;;
78666;SDS011;67983;59.830;30.198;2023-04-25T07:11:59;5.03;;;3.03;;
78666;SDS011;67983;59.830;30.198;2023-04-25T07:14:29;5.93;;;2.50;;
78666;SDS011;67983;59.830;30.198;2023-04-25T07:16:59;3.53;;;2.20;;
78666;SDS011;67983;59.830;30.198;2023-04-25T07:19:54;5.25;;;2.72;;
78666;SDS011;67983;59.830;30.198;2023-04-25T07:22:22;4.13;;;2.75;;
78666;SDS011;67983;59.830;30.198;2023-04-25T07:24:49;3.17;;;2.40;;
78666;SDS011;67983;59.830;30.198;2023-04-25T07:27:20;5.88;;;2.75;;
78666;SDS011;67983;59.830;30.198;2023-04-25T07:30:13;3.28;;;2.28;;
78666;SDS011;67983;59.830;30.198;2023-04-25T07:32:42;5.78;;;2.30;;
78666;SDS011;67983;59.830;30.198;2023-04-25T07:35:09;3.10;;;2.20;;
78666;SDS011;67983;59.830;30.198;2023-04-25T07:37:44;4.20;;;2.33;;
78666;SDS011;67983;59.830;30.198;2023-04-25T07:40:18;4.03;;;2.42;;
78666;SDS011;67983;59.830;30.198;2023-04-25T07:42:52;5.18;;;2.60;;
78666;SDS011;67983;59.830;30.198;2023-04-25T07:45:31;2.58;;;2.00;;
78666;SDS011;67983;59.830;30.198;2023-04-25T07:48:00;3.88;;;2.22;;
78666;SDS011;67983;59.830;30.198;2023-04-25T07:50:29;3.35;;;2.28;;
78666;SDS011;67983;59.830;30.198;2023-04-25T07:52:57;4.00;;;2.15;;
78666;SDS011;67983;59.830;30.198;2023-04-25T07:55:30;5.97;;;2.00;;
78666;SDS011;67983;59.830;30.198;2023-04-25T07:58:06;5.80;;;2.33;;
78666;SDS011;67983;59.830;30.198;2023-04-25T08:00:35;5.65;;;2.40;;
78666;SDS011;67983;59.830;30.198;2023-04-25T08:03:22;3.00;;;2.17;;
78666;SDS011;67983;59.830;30.198;2023-04-25T08:05:50;3.72;;;2.35;;
78666;SDS011;67983;59.830;30.198;2023-04-25T08:08:18;3.97;;;1.95;;
78666;SDS011;67983;59.830;30.198;2023-04-25T08:10:47;4.13;;;2.10;;
78666;SDS011;67983;59.830;30.198;2023-04-25T08:13:15;4.50;;;2.20;;
78666;SDS011;67983;59.830;30.198;2023-04-25T08:15:44;3.83;;;2.25;;
78666;SDS011;67983;59.830;30.198;2023-04-25T08:18:11;8.18;;;2.60;;
78666;SDS011;67983;59.830;30.198;2023-04-25T08:20:41;3.20;;;2.40;;
78666;SDS011;67983;59.830;30.198;2023-04-25T08:23:10;2.88;;;2.17;;
78666;SDS011;67983;59.830;30.198;2023-04-25T08:26:01;3.95;;;2.15;;
78666;SDS011;67983;59.830;30.198;2023-04-25T08:28:32;4.97;;;2.45;;
78666;SDS011;67983;59.830;30.198;2023-04-25T08:31:02;4.47;;;2.22;;
78666;SDS011;67983;59.830;30.198;2023-04-25T08:33:37;7.85;;;2.70;;
78666;SDS011;67983;59.830;30.198;2023-04-25T08:36:20;2.33;;;1.65;;
78666;SDS011;67983;59.830;30.198;2023-04-25T08:38:48;4.15;;;2.30;;
78666;SDS011;67983;59.830;30.198;2023-04-25T08:41:18;6.38;;;2.20;;
78666;SDS011;67983;59.830;30.198;2023-04-25T08:43:48;5.18;;;2.17;;
78666;SDS011;67983;59.830;30.198;2023-04-25T08:46:18;3.70;;;2.10;;
78666;SDS011;67983;59.830;30.198;2023-04-25T08:49:11;4.82;;;2.25;;
78666;SDS011;67983;59.830;30.198;2023-04-25T08:51:44;4.88;;;2.38;;
78666;SDS011;67983;59.830;30.198;2023-04-25T08:54:18;3.10;;;1.63;;
78666;SDS011;67983;59.830;30.198;2023-04-25T08:56:52;4.20;;;1.95;;
78666;SDS011;67983;59.830;30.198;2023-04-25T08:59:20;7.70;;;2.25;;
78666;SDS011;67983;59.830;30.198;2023-04-25T09:01:49;3.45;;;2.17;;
78666;SDS011;67983;59.830;30.198;2023-04-25T09:04:21;2.47;;;1.92;;
78666;SDS011;67983;59.830;30.198;2023-04-25T09:06:53;2.72;;;2.28;;
78666;SDS011;67983;59.830;30.198;2023-04-25T09:09:21;3.90;;;2.20;;
78666;SDS011;67983;59.830;30.198;2023-04-25T09:11:49;2.95;;;2.08;;
78666;SDS011;67983;59.830;30.198;2023-04-25T09:14:17;4.00;;;2.45;;
78666;SDS011;67983;59.830;30.198;2023-04-25T09:16:58;5.25;;;2.10;;
78666;SDS011;67983;59.830;30.198;2023-04-25T09:19:38;2.90;;;2.30;;
78666;SDS011;67983;59.830;30.198;2023-04-25T09:24:49;5.18;;;2.15;;
78666;SDS011;67983;59.830;30.198;2023-04-25T09:27:18;3.33;;;2.15;;
78666;SDS011;67983;59.830;30.198;2023-04-25T09:29:57;4.93;;;2.17;;
78666;SDS011;67983;59.830;30.198;2023-04-25T09:32:31;2.65;;;1.73;;
78666;SDS011;67983;59.830;30.198;2023-04-25T09:34:59;3.28;;;2.03;;
78666;SDS011;67983;59.830;30.198;2023-04-25T09:37:30;3.55;;;2.40;;
78666;SDS011;67983;59.830;30.198;2023-04-25T09:40:19;8.07;;;2.47;;
78666;SDS011;67983;59.830;30.198;2023-04-25T09:42:56;6.28;;;2.20;;
78666;SDS011;67983;59.830;30.198;2023-04-25T09:45:26;5.00;;;2.10;;
78666;SDS011;67983;59.830;30.198;2023-04-25T09:47:59;3.63;;;2.10;;
78666;SDS011;67983;59.830;30.198;2023-04-25T09:50:45;4.00;;;1.95;;
78666;SDS011;67983;59.830;30.198;2023-04-25T09:53:31;3.25;;;2.05;;
78666;SDS011;67983;59.830;30.198;2023-04-25T09:56:11;6.90;;;2.20;;
78666;SDS011;67983;59.830;30.198;2023-04-25T09:58:40;3.45;;;2.17;;
78666;SDS011;67983;59.830;30.198;2023-04-25T10:01:08;2.55;;;1.80;;
78666;SDS011;67983;59.830;30.198;2023-04-25T10:03:49;3.17;;;2.00;;
78666;SDS011;67983;59.830;30.198;2023-04-25T10:06:37;4.68;;;2.45;;
78666;SDS011;67983;59.830;30.198;2023-04-25T10:09:08;7.07;;;2.45;;
78666;SDS011;67983;59.830;30.198;2023-04-25T10:11:36;4.70;;;2.58;;
78666;SDS011;67983;59.830;30.198;2023-04-25T10:16:33;3.13;;;2.33;;
78666;SDS011;67983;59.830;30.198;2023-04-25T10:19:01;6.38;;;2.42;;
78666;SDS011;67983;59.830;30.198;2023-04-25T10:21:29;4.45;;;2.50;;
78666;SDS011;67983;59.830;30.198;2023-04-25T10:24:00;4.05;;;2.00;;
78666;SDS011;67983;59.830;30.198;2023-04-25T10:26:30;3.15;;;2.20;;
78666;SDS011;67983;59.830;30.198;2023-04-25T10:28:59;3.45;;;2.30;;
78666;SDS011;67983;59.830;30.198;2023-04-25T10:31:29;3.78;;;2.40;;
78666;SDS011;67983;59.830;30.198;2023-04-25T10:33:56;3.13;;;2.10;;
78666;SDS011;67983;59.830;30.198;2023-04-25T10:36:24;2.80;;;1.73;;
78666;SDS011;67983;59.830;30.198;2023-04-25T10:38:53;5.93;;;2.30;;
78666;SDS011;67983;59.830;30.198;2023-04-25T10:41:23;3.50;;;2.20;;
78666;SDS011;67983;59.830;30.198;2023-04-25T10:43:59;5.95;;;2.33;;
78666;SDS011;67983;59.830;30.198;2023-04-25T10:46:29;7.60;;;2.85;;
78666;SDS011;67983;59.830;30.198;2023-04-25T10:48:57;5.57;;;2.40;;
78666;SDS011;67983;59.830;30.198;2023-04-25T10:51:25;3.80;;;2.25;;
78666;SDS011;67983;59.830;30.198;2023-04-25T10:53:57;4.30;;;1.98;;
78666;SDS011;67983;59.830;30.198;2023-04-25T10:56:27;3.20;;;1.98;;
78666;SDS011;67983;59.830;30.198;2023-04-25T10:59:04;5.53;;;2.33;;
78666;SDS011;67983;59.830;30.198;2023-04-25T11:01:38;8.38;;;2.33;;
78666;SDS011;67983;59.830;30.198;2023-04-25T11:04:33;4.10;;;2.40;;
78666;SDS011;67983;59.830;30.198;2023-04-25T11:07:04;3.60;;;2.60;;
78666;SDS011;67983;59.830;30.198;2023-04-25T11:09:38;3.88;;;2.60;;
78666;SDS011;67983;59.830;30.198;2023-04-25T11:12:07;3.80;;;2.30;;
78666;SDS011;67983;59.830;30.198;2023-04-25T11:14:40;2.97;;;2.50;;
78666;SDS011;67983;59.830;30.198;2023-04-25T11:17:07;2.70;;;2.17;;
78666;SDS011;67983;59.830;30.198;2023-04-25T11:19:35;3.10;;;2.10;;
78666;SDS011;67983;59.830;30.198;2023-04-25T11:22:03;4.95;;;2.30;;
78666;SDS011;67983;59.830;30.198;2023-04-25T11:24:31;2.78;;;2.17;;
78666;SDS011;67983;59.830;30.198;2023-04-25T11:27:01;3.38;;;2.10;;
78666;SDS011;67983;59.830;30.198;2023-04-25T11:29:30;2.55;;;1.92;;
78666;SDS011;67983;59.830;30.198;2023-04-25T11:32:03;3.05;;;2.00;;
78666;SDS011;67983;59.830;30.198;2023-04-25T11:34:30;7.60;;;2.13;;
78666;SDS011;67983;59.830;30.198;2023-04-25T11:36:58;4.68;;;2.30;;
78666;SDS011;67983;59.830;30.198;2023-04-25T11:39:28;2.58;;;2.38;;
78666;SDS011;67983;59.830;30.198;2023-04-25T11:41:55;3.85;;;1.98;;
78666;SDS011;67983;59.830;30.198;2023-04-25T11:44:22;2.35;;;2.10;;
78666;SDS011;67983;59.830;30.198;2023-04-25T11:46:49;2.85;;;2.13;;
78666;SDS011;67983;59.830;30.198;2023-04-25T11:49:18;4.68;;;1.95;;
78666;SDS011;67983;59.830;30.198;2023-04-25T11:51:45;2.50;;;2.03;;
78666;SDS011;67983;59.830;30.198;2023-04-25T11:54:15;5.35;;;2.17;;
78666;SDS011;67983;59.830;30.198;2023-04-25T11:56:47;2.78;;;2.22;;
78666;SDS011;67983;59.830;30.198;2023-04-25T11:59:39;3.30;;;2.03;;
78666;SDS011;67983;59.830;30.198;2023-04-25T12:02:07;3.00;;;2.00;;
78666;SDS011;67983;59.830;30.198;2023-04-25T12:04:36;4.40;;;2.15;;
78666;SDS011;67983;59.830;30.198;2023-04-25T12:07:04;6.03;;;3.33;;
78666;SDS011;67983;59.830;30.198;2023-04-25T12:09:32;4.75;;;2.30;;
78666;SDS011;67983;59.830;30.198;2023-04-25T12:12:03;3.70;;;1.73;;
78666;SDS011;67983;59.830;30.198;2023-04-25T12:14:32;2.45;;;1.80;;
78666;SDS011;67983;59.830;30.198;2023-04-25T12:17:01;5.38;;;2.00;;
78666;SDS011;67983;59.830;30.198;2023-04-25T12:19:31;3.20;;;2.13;;
78666;SDS011;67983;59.830;30.198;2023-04-25T12:22:01;3.45;;;2.20;;
78666;SDS011;67983;59.830;30.198;2023-04-25T12:27:00;3.45;;;2.00;;
78666;SDS011;67983;59.830;30.198;2023-04-25T12:29:30;3.92;;;2.28;;
78666;SDS011;67983;59.830;30.198;2023-04-25T12:31:57;3.53;;;1.90;;
78666;SDS011;67983;59.830;30.198;2023-04-25T12:34:25;5.45;;;2.30;;
78666;SDS011;67983;59.830;30.198;2023-04-25T12:36:52;3.80;;;1.92;;
78666;SDS011;67983;59.830;30.198;2023-04-25T12:39:22;3.03;;;2.45;;
78666;SDS011;67983;59.830;30.198;2023-04-25T12:41:50;3.15;;;1.80;;
78666;SDS011;67983;59.830;30.198;2023-04-25T12:44:19;3.88;;;2.20;;
78666;SDS011;67983;59.830;30.198;2023-04-25T12:46:46;6.10;;;2.50;;
78666;SDS011;67983;59.830;30.198;2023-04-25T12:49:15;2.33;;;1.80;;
78666;SDS011;67983;59.830;30.198;2023-04-25T12:51:43;3.67;;;2.20;;
78666;SDS011;67983;59.830;30.198;2023-04-25T12:54:10;5.53;;;2.55;;
78666;SDS011;67983;59.830;30.198;2023-04-25T12:56:38;2.65;;;1.90;;
78666;SDS011;67983;59.830;30.198;2023-04-25T12:59:05;4.20;;;1.85;;
78666;SDS011;67983;59.830;30.198;2023-04-25T13:01:32;2.83;;;2.17;;
78666;SDS011;67983;59.830;30.198;2023-04-25T13:03:59;2.95;;;1.90;;
78666;SDS011;67983;59.830;30.198;2023-04-25T13:06:30;3.45;;;1.90;;
78666;SDS011;67983;59.830;30.198;2023-04-25T13:08:57;2.55;;;1.67;;
78666;SDS011;67983;59.830;30.198;2023-04-25T13:11:28;3.47;;;2.35;;
78666;SDS011;67983;59.830;30.198;2023-04-25T13:13:59;7.43;;;2.65;;
78666;SDS011;67983;59.830;30.198;2023-04-25T13:16:27;7.28;;;2.63;;
78666;SDS011;67983;59.830;30.198;2023-04-25T13:18:54;2.72;;;2.10;;
78666;SDS011;67983;59.830;30.198;2023-04-25T13:21:21;2.92;;;2.30;;
78666;SDS011;67983;59.830;30.198;2023-04-25T13:23:48;4.22;;;2.47;;
78666;SDS011;67983;59.830;30.198;2023-04-25T13:26:16;4.10;;;2.17;;
78666;SDS011;67983;59.830;30.198;2023-04-25T13:29:12;5.35;;;2.50;;
78666;SDS011;67983;59.830;30.198;2023-04-25T13:31:39;7.15;;;2.20;;
78666;SDS011;67983;59.830;30.198;2023-04-25T13:34:06;3.20;;;2.10;;
78666;SDS011;67983;59.830;30.198;2023-04-25T13:36:33;4.70;;;2.03;;
78666;SDS011;67983;59.830;30.198;2023-04-25T13:39:01;4.05;;;2.30;;
78666;SDS011;67983;59.830;30.198;2023-04-25T13:41:29;3.60;;;2.20;;
78666;SDS011;67983;59.830;30.198;2023-04-25T13:43:58;8.40;;;2.50;;
78666;SDS011;67983;59.830;30.198;2023-04-25T13:46:29;4.20;;;1.95;;
78666;SDS011;67983;59.830;30.198;2023-04-25T13:48:57;3.47;;;2.08;;
78666;SDS011;67983;59.830;30.198;2023-04-25T13:51:26;3.38;;;2.10;;
78666;SDS011;67983;59.830;30.198;2023-04-25T13:53:56;4.13;;;2.20;;
78666;SDS011;67983;59.830;30.198;2023-04-25T13:56:24;6.10;;;2.40;;
78666;SDS011;67983;59.830;30.198;2023-04-25T13:58:51;2.53;;;2.05;;
78666;SDS011;67983;59.830;30.198;2023-04-25T14:01:19;4.25;;;2.10;;
78666;SDS011;67983;59.830;30.198;2023-04-25T14:06:20;5.65;;;2.40;;
78666;SDS011;67983;59.830;30.198;2023-04-25T14:08:52;3.42;;;2.30;;
78666;SDS011;67983;59.830;30.198;2023-04-25T14:11:20;3.95;;;2.00;;
78666;SDS011;67983;59.830;30.198;2023-04-25T14:13:47;2.40;;;2.20;;
78666;SDS011;67983;59.830;30.198;2023-04-25T14:16:16;2.35;;;1.73;;
78666;SDS011;67983;59.830;30.198;2023-04-25T14:18:43;3.10;;;2.20;;
78666;SDS011;67983;59.830;30.198;2023-04-25T14:21:12;3.60;;;2.55;;
78666;SDS011;67983;59.830;30.198;2023-04-25T14:23:40;3.13;;;2.35;;
78666;SDS011;67983;59.830;30.198;2023-04-25T14:26:08;18.23;;;2.70;;
78666;SDS011;67983;59.830;30.198;2023-04-25T14:28:37;3.53;;;2.20;;
78666;SDS011;67983;59.830;30.198;2023-04-25T14:31:04;2.65;;;2.40;;
78666;SDS011;67983;59.830;30.198;2023-04-25T14:33:33;4.00;;;1.98;;
78666;SDS011;67983;59.830;30.198;2023-04-25T14:36:03;4.90;;;2.47;;
78666;SDS011;67983;59.830;30.198;2023-04-25T14:38:34;3.75;;;2.50;;
78666;SDS011;67983;59.830;30.198;2023-04-25T14:43:29;5.80;;;2.95;;
78666;SDS011;67983;59.830;30.198;2023-04-25T14:45:57;5.38;;;2.75;;
78666;SDS011;67983;59.830;30.198;2023-04-25T14:48:24;4.18;;;2.50;;
78666;SDS011;67983;59.830;30.198;2023-04-25T14:50:54;4.63;;;2.60;;
78666;SDS011;67983;59.830;30.198;2023-04-25T14:53:24;6.00;;;2.70;;
78666;SDS011;67983;59.830;30.198;2023-04-25T14:55:53;4.03;;;2.40;;
78666;SDS011;67983;59.830;30.198;2023-04-25T14:58:20;3.83;;;2.70;;
78666;SDS011;67983;59.830;30.198;2023-04-25T15:00:50;5.40;;;2.75;;
78666;SDS011;67983;59.830;30.198;2023-04-25T15:03:18;5.18;;;2.92;;
78666;SDS011;67983;59.830;30.198;2023-04-25T15:05:46;6.68;;;3.08;;
78666;SDS011;67983;59.830;30.198;2023-04-25T15:08:15;5.63;;;3.50;;
78666;SDS011;67983;59.830;30.198;2023-04-25T15:10:44;4.47;;;3.30;;
78666;SDS011;67983;59.830;30.198;2023-04-25T15:13:14;4.25;;;3.25;;
78666;SDS011;67983;59.830;30.198;2023-04-25T15:15:42;4.75;;;3.22;;